• Join FlightAware (Why Join?)
  • Login
  • US Flag 
Gobble Gobble! 
03:04AM EST


 

Airport Tracker/Info


-or-


 

Live Flight TrackerFlight Track Log ✈ SWA3247 ✈ 27-Jun-2013 ✈ KLAS - KALB

Flight Track Log - Related Links

Times and Time Zones

All times are in EDT time to prevent confusion due to time zone crossing. See the SWA3247 flight status page for this flight to view local times or setup timezone preferences in your user account.

Time Position Orientation Groundspeed Altitude Reporting Facility
EDT Latitude Longitude Course Direction KTS MPH feet Rate Location/Type
08:55PM 36.0769 -115.1119 90° East 177 204 3,100  Level Los Angeles Center
08:55PM 36.0767 -115.0722 90° East 192 221 3,800 1,620 Climbing Los Angeles Center
08:56PM 36.0781 -114.9892 89° East 246 283 5,800 1,920 Climbing Los Angeles Center
08:58PM 36.0908 -114.8617 83° East 286 329 8,600 2,160 Climbing Los Angeles Center
08:59PM 36.1106 -114.7372 79° East 306 352 11,200 2,460 Climbing Los Angeles Center
09:00PM 36.1308 -114.6217 78° East 338 389 13,700 2,220 Climbing Los Angeles Center
09:01PM 36.1494 -114.5033 79° East 349 402 15,900 2,100 Climbing Los Angeles Center
09:02PM 36.1706 -114.3794 78° East 365 420 18,100 1,800 Climbing Los Angeles Center
09:03PM 36.1922 -114.2478 78° East 385 443 19,700 1,800 Climbing Los Angeles Center
09:04PM 36.2094 -114.1083 81° East 407 468 21,900 1,920 Climbing Los Angeles Center
09:05PM 36.2256 -113.9686 82° East 410 472 23,700 1,740 Climbing Los Angeles Center
09:06PM 36.2458 -113.7947 82° East 424 488 25,500 1,620 Climbing Los Angeles Center
09:07PM 36.2625 -113.6464 82° East 433 498 27,100 1,440 Climbing Los Angeles Center
09:08PM 36.2811 -113.4947 81° East 443 510 28,500 1,500 Climbing Los Angeles Center
09:09PM 36.2989 -113.3406 82° East 451 519 30,200 1,680 Climbing Los Angeles Center
09:10PM 36.3286 -113.1797 77° East 448 516 32,000 1,440 Climbing Los Angeles Center
09:11PM 36.3808 -113.0417 65° Northeast 444 511 33,200 1,140 Climbing Los Angeles Center
09:12PM 36.4314 -112.9017 66° East 446 513 34,400 840 Climbing Los Angeles Center
09:13PM 36.4833 -112.7606 65° Northeast 450 518 35,000 240 Climbing Los Angeles Center
09:14PM 36.5450 -112.5931 65° Northeast 447 514 35,000  Level Los Angeles Center
09:15PM 36.5958 -112.4542 65° Northeast 445 512 35,000  Level Los Angeles Center
09:16PM 36.6464 -112.3150 66° East 444 511 35,000  Level Los Angeles Center
09:17PM 36.6969 -112.1769 65° Northeast 442 509 35,000  Level Los Angeles Center
09:19PM 36.7464 -112.0406 66° East 437 503 35,000  Level Los Angeles Center
09:20PM 36.7961 -111.9047 65° Northeast 435 501 35,000  Level Los Angeles Center
09:21PM 36.8544 -111.7408 66° East 432 497 35,000  Level Los Angeles Center
09:22PM 36.9039 -111.6028 66° East 435 501 35,000  Level Denver Center
09:23PM 36.9528 -111.4653 66° East 435 501 35,000  Level Denver Center
09:24PM 37.0092 -111.3014 67° East 432 497 35,000  Level Denver Center
09:25PM 37.0578 -111.1619 66° East 436 502 35,000  Level Denver Center
09:26PM 37.1064 -111.0222 66° East 439 505 35,000  Level Denver Center
09:27PM 37.1544 -110.8831 67° East 439 505 35,000  Level Denver Center
09:28PM 37.2031 -110.7419 67° East 441 507 35,000  Level Denver Center
09:29PM 37.2517 -110.6028 66° East 440 506 35,000  Level Denver Center
09:30PM 37.3094 -110.4342 67° East 439 505 35,000  Level Denver Center
09:31PM 37.3564 -110.2936 67° East 438 504 35,000  Level Denver Center
09:32PM 37.4033 -110.1553 67° East 439 505 35,000  Level Denver Center
09:33PM 37.4481 -110.0214 67° East 434 499 35,000  Level Denver Center
09:34PM 37.5017 -109.8650 67° East 434 499 35,000  Level Denver Center
09:35PM 37.5467 -109.7286 67° East 438 504 35,000  Level Denver Center
09:36PM 37.5997 -109.5694 67° East 441 507 35,000  Level Denver Center
09:37PM 37.6581 -109.4406 60° Northeast 438 504 35,000  Level Denver Center
09:38PM 37.7375 -109.2947 55° Northeast 449 517 35,000 180 Level Denver Center
09:39PM 37.8067 -109.1722 54° Northeast 448 516 35,400 720 Climbing Denver Center
09:40PM 37.8758 -109.0508 54° Northeast 445 512 36,600 780 Climbing Denver Center
09:41PM 37.9544 -108.9086 55° Northeast 442 509 37,000 180 Climbing Denver Center
09:42PM 38.0206 -108.7858 56° Northeast 441 507 37,000  Level Denver Center
09:43PM 38.0897 -108.6353 60° Northeast 443 510 37,000  Level Denver Center
09:44PM 38.1278 -108.4936 71° East 443 510 37,000  Level Denver Center
09:45PM 38.1733 -108.3275 71° East 443 510 37,000  Level Denver Center
09:46PM 38.2108 -108.1853 71° East 444 511 37,000  Level Denver Center
09:47PM 38.2553 -108.0206 71° East 444 511 37,000  Level Denver Center
09:48PM 38.2928 -107.8786 71° East 442 509 37,000  Level Denver Center
09:50PM 38.3306 -107.7378 71° East 441 507 37,000  Level Denver Center
09:51PM 38.3744 -107.5711 71° East 445 512 37,000  Level Denver Center
09:52PM 38.4114 -107.4308 71° East 440 506 37,000  Level Denver Center
09:53PM 38.4544 -107.2661 71° East 440 506 37,000  Level Denver Center
09:54PM 38.4783 -107.1192 78° East 443 510 37,000  Level Denver Center
09:55PM 38.4986 -106.9653 80° East 443 510 37,000  Level Denver Center
09:56PM 38.5183 -106.8128 81° East 440 506 37,000  Level Denver Center
09:57PM 38.5397 -106.6592 80° East 442 509 37,000  Level Denver Center
09:58PM 38.5708 -106.4778 78° East 440 506 37,000  Level Denver Center
09:59PM 38.6097 -106.3306 71° East 439 505 37,000  Level Denver Center
10:00PM 38.6517 -106.1819 70° East 442 509 37,000  Level Denver Center
10:01PM 38.6961 -106.0256 70° East 442 509 37,000  Level Denver Center
10:02PM 38.7383 -105.8769 70° East 446 513 37,000  Level Denver Center
10:03PM 38.7792 -105.7261 71° East 449 517 37,000  Level Denver Center
10:04PM 38.8214 -105.5772 70° East 447 514 37,000  Level Denver Center
10:05PM 38.8631 -105.4267 70° East 451 519 37,000  Level Denver Center
10:06PM 38.9117 -105.2481 71° East 446 513 37,000  Level Denver Center
10:07PM 38.9519 -105.0986 71° East 446 513 37,000  Level Denver Center
10:08PM 38.9922 -104.9514 71° East 441 507 37,000  Level Denver Center
10:09PM 39.0322 -104.8036 71° East 441 507 37,000  Level Denver Center
10:10PM 39.0731 -104.6544 71° East 444 511 37,000  Level Denver Center
10:11PM 39.1203 -104.4750 71° East 445 512 37,000  Level Denver Center
10:12PM 39.1597 -104.3244 71° East 448 516 37,000  Level Denver Center
10:13PM 39.1994 -104.1731 71° East 449 517 37,000  Level Denver Center
10:14PM 39.2394 -104.0233 71° East 446 513 37,000  Level Denver Center
10:15PM 39.2789 -103.8728 71° East 447 514 37,000  Level Denver Center
10:16PM 39.3181 -103.7217 71° East 447 514 37,000  Level Denver Center
10:17PM 39.3633 -103.5400 72° East 446 513 37,000  Level Denver Center
10:18PM 39.4011 -103.3911 72° East 438 504 37,000  Level Denver Center
10:19PM 39.4403 -103.2417 71° East 441 507 37,000  Level Denver Center
10:20PM 39.4781 -103.0925 72° East 438 504 37,000  Level Denver Center
10:21PM 39.5153 -102.9425 72° East 438 504 37,000  Level Denver Center
10:22PM 39.5531 -102.7911 72° East 442 509 37,000  Level Denver Center
10:23PM 39.5903 -102.6389 72° East 445 512 37,000  Level Denver Center
10:25PM 39.6350 -102.4578 72° East 448 516 37,000  Level Denver Center
10:26PM 39.6706 -102.3106 73° East 448 516 37,000  Level Denver Center
10:27PM 39.7128 -102.1383 72° East 449 517 37,000  Level Denver Center
10:28PM 39.7475 -101.9900 73° East 449 517 37,000  Level Denver Center
10:29PM 39.7892 -101.8178 72° East 448 516 37,000  Level Denver Center
10:30PM 39.8236 -101.6703 73° East 448 516 37,000  Level Denver Center
10:31PM 39.8644 -101.4978 73° East 448 516 37,000  Level Denver Center
10:32PM 39.8989 -101.3503 73° East 448 516 37,000  Level Denver Center
10:33PM 39.9331 -101.2019 73° East 448 516 37,000  Level Denver Center
10:34PM 39.9725 -101.0303 73° East 445 512 37,000  Level Denver Center
10:35PM 40.0069 -100.8811 73° East 449 517 37,000  Level Denver Center
10:36PM 40.0456 -100.7058 74° East 452 520 37,000  Level Denver Center
10:37PM 40.0800 -100.5550 73° East 456 525 37,000  Level Denver Center
10:38PM 40.1197 -100.3781 74° East 458 527 37,000  Level Denver Center
10:39PM 40.1542 -100.2272 73° East 456 525 37,000  Level Denver Center
10:40PM 40.1925 -100.0503 74° East 456 525 37,000  Level Denver Center
10:41PM 40.2272 -99.8894 74° East 456 525 37,000  Level Denver Center
10:42PM 40.2633 -99.7297 73° East 458 527 37,000  Level Denver Center
10:43PM 40.2975 -99.5706 74° East 456 525 37,000  Level Denver Center
10:44PM 40.3311 -99.4081 75° East 461 531 37,000  Level Denver Center
10:45PM 40.3653 -99.2478 74° East 460 529 37,000  Level Denver Center
10:46PM 40.3853 -99.1525 75° East 461 531 37,000  Level Minneapolis Center
10:47PM 40.4200 -98.9933 74° East 458 527 37,000  Level Minneapolis Center
10:48PM 40.4525 -98.8317 75° East 460 529 37,000  Level Minneapolis Center
10:49PM 40.4936 -98.6369 74° East 463 533 37,000  Level Minneapolis Center
10:50PM 40.5258 -98.4742 75° East 464 534 37,000  Level Minneapolis Center
10:51PM 40.5661 -98.2789 75° East 464 534 37,000  Level Minneapolis Center
10:52PM 40.5986 -98.1153 75° East 464 534 37,000  Level Minneapolis Center
10:53PM 40.6306 -97.9528 75° East 463 533 37,000  Level Minneapolis Center
10:54PM 40.6633 -97.7894 75° East 463 533 37,000  Level Minneapolis Center
10:55PM 40.6961 -97.6247 75° East 466 536 37,000  Level Minneapolis Center
10:56PM 40.7272 -97.4617 76° East 462 532 37,000  Level Minneapolis Center
10:57PM 40.7600 -97.2928 76° East 468 539 37,000  Level Minneapolis Center
10:58PM 40.7917 -97.1272 76° East 467 537 37,000  Level Minneapolis Center
10:59PM 40.8306 -96.9267 76° East 471 542 37,000  Level Minneapolis Center
11:00PM 40.8619 -96.7581 76° East 474 545 37,000  Level Minneapolis Center
11:01PM 40.8922 -96.5892 77° East 474 545 37,000  Level Minneapolis Center
11:02PM 40.9314 -96.3883 75° East 474 545 37,000  Level Minneapolis Center
11:03PM 40.9614 -96.2186 77° East 474 545 37,000  Level Minneapolis Center
11:05PM 40.9919 -96.0494 76° East 476 548 37,000  Level Minneapolis Center
11:06PM 41.0219 -95.8783 77° East 481 554 37,000  Level Minneapolis Center
11:07PM 41.0647 -95.6389 77° East 482 555 37,000  Level Minneapolis Center
11:08PM 41.0953 -95.4661 77° East 486 559 37,000  Level Minneapolis Center
11:09PM 41.1264 -95.2925 77° East 487 560 37,000  Level Minneapolis Center
11:10PM 41.1564 -95.1181 77° East 487 560 37,000  Level Minneapolis Center
11:11PM 41.1861 -94.9436 77° East 487 560 37,000  Level Minneapolis Center
11:12PM 41.2156 -94.7681 77° East 487 560 37,000  Level Minneapolis Center
11:13PM 41.2506 -94.5589 77° East 486 559 37,000  Level Minneapolis Center
11:14PM 41.2792 -94.3856 78° East 482 555 37,000  Level Minneapolis Center
11:15PM 41.3072 -94.2128 78° East 481 554 37,000  Level Minneapolis Center
11:16PM 41.3328 -94.0556 78° East 481 554 37,000  Level Minneapolis Center
11:17PM 41.3600 -93.8819 78° East 482 555 37,000  Level Minneapolis Center
11:18PM 41.3989 -93.6406 78° East 480 552 37,000  Level Minneapolis Center
11:19PM 41.4275 -93.4653 78° East 483 556 37,000  Level Minneapolis Center
11:20PM 41.4550 -93.2886 78° East 488 562 37,000  Level Minneapolis Center
11:21PM 41.4822 -93.1131 78° East 487 560 37,000  Level Minneapolis Center
11:22PM 41.5089 -92.9372 78° East 486 559 37,000  Level Minneapolis Center
11:24PM 41.5361 -92.7600 78° East 488 562 37,000  Level Minneapolis Center
11:25PM 41.5669 -92.5467 79° East 490 564 37,000  Level Minneapolis Center
11:26PM 41.5983 -92.3336 79° East 490 564 37,000  Level Minneapolis Center
11:27PM 41.6247 -92.1475 79° East 484 557 37,000  Level Chicago Center
11:28PM 41.6494 -91.9717 79° East 486 559 37,000  Level Chicago Center
11:29PM 41.6739 -91.7978 79° East 483 556 37,000  Level Chicago Center
11:30PM 41.7028 -91.5894 79° East 482 555 37,000  Level Chicago Center
11:31PM 41.7278 -91.4178 79° East 479 551 37,000  Level Chicago Center
11:32PM 41.7508 -91.2472 80° East 473 544 37,000  Level Chicago Center
11:33PM 41.7739 -91.0717 80° East 480 552 37,000  Level Chicago Center
11:34PM 41.7975 -90.8961 80° East 487 560 37,000  Level Chicago Center
11:35PM 41.8200 -90.7206 80° East 485 558 37,000  Level Chicago Center
11:36PM 41.8467 -90.5119 80° East 481 554 37,000  Level Chicago Center
11:37PM 41.8708 -90.3344 80° East 487 560 37,000  Level Chicago Center
11:38PM 41.8936 -90.1567 80° East 491 565 37,000  Level Chicago Center
11:39PM 41.9144 -89.9792 81° East 489 563 37,000  Level Chicago Center
11:40PM 41.9378 -89.7875 81° East 487 560 37,000  Level Chicago Center
11:41PM 41.9606 -89.6067 80° East 492 566 37,000  Level Chicago Center
11:42PM 41.9825 -89.4253 81° East 495 570 37,000  Level Chicago Center
11:43PM 42.0031 -89.2450 81° East 491 565 37,000  Level Chicago Center
11:44PM 42.0236 -89.0636 81° East 490 564 37,000  Level Chicago Center
11:45PM 42.0483 -88.8472 81° East 491 565 37,000  Level Chicago Center
11:46PM 42.0686 -88.6678 81° East 488 562 37,000  Level Chicago Center
11:47PM 42.0892 -88.4889 81° East 487 560 37,000  Level Chicago Center
11:48PM 42.1078 -88.3108 82° East 483 556 37,000  Level Chicago Center
11:49PM 42.1272 -88.1292 82° East 487 560 37,000  Level Chicago Center
11:50PM 42.1458 -87.9506 82° East 482 555 37,000  Level Chicago Center
11:51PM 42.1642 -87.7700 82° East 485 558 37,000  Level Chicago Center
11:52PM 42.1825 -87.5889 82° East 488 562 37,000  Level Chicago Center
11:53PM 42.2017 -87.4086 82° East 487 560 37,000  Level Chicago Center
11:54PM 42.2236 -87.1889 82° East 493 567 37,000  Level Chicago Center
11:55PM 42.2403 -87.0058 83° East 494 568 37,000  Level Chicago Center
11:56PM 42.2589 -86.8211 82° East 498 573 37,000  Level Chicago Center
11:57PM 42.2733 -86.6617 83° East 502 578 37,000  Level Chicago Center
11:58PM 42.2942 -86.4375 83° East 501 577 37,000  Level Chicago Center
11:59PM 42.3103 -86.2614 83° East 504 580 37,000  Level Chicago Center
12:00AM 42.3267 -86.0767 83° East 502 578 37,000  Level Chicago Center
12:01AM 42.3428 -85.8925 83° East 499 574 37,000  Level Chicago Center
12:03AM 42.3589 -85.7089 83° East 498 573 37,000  Level Chicago Center
12:04AM 42.3778 -85.4889 83° East 497 572 37,000  Level Chicago Center
12:05AM 42.3931 -85.3067 83° East 495 570 37,000  Level Chicago Center
12:06AM 42.4072 -85.1261 84° East 489 563 37,000  Level Chicago Center
12:07AM 42.4214 -84.9442 84° East 488 562 37,000  Level Chicago Center
12:08AM 42.4358 -84.7631 84° East 487 560 37,000  Level Chicago Center
12:09AM 42.4492 -84.5839 84° East 482 555 37,000  Level Chicago Center
12:10AM 42.4628 -84.4047 84° East 481 554 37,000  Level Chicago Center
12:10AM 42.4731 -84.2403 85° East 479 551 37,000  Level Cleveland Center
12:11AM 42.4847 -84.0661 85° East 479 551 37,000  Level Cleveland Center
12:12AM 42.5003 -83.8867 83° East 479 551 37,000  Level Cleveland Center
12:13AM 42.5114 -83.7100 85° East 479 551 37,000  Level Cleveland Center
12:14AM 42.5244 -83.5331 84° East 479 551 37,000  Level Cleveland Center
12:15AM 42.5331 -83.3586 86° East 474 545 37,000  Level Cleveland Center
12:16AM 42.5456 -83.1844 84° East 469 540 37,000  Level Cleveland Center
12:17AM 42.5556 -83.0044 86° East 469 540 37,000  Level Cleveland Center
12:18AM 42.5631 -82.8469 86° East 469 540 37,000  Level Cleveland Center
12:19AM 42.5747 -82.6697 85° East 469 540 37,000  Level Cleveland Center
12:20AM 42.5839 -82.4950 86° East 469 540 37,000  Level Cleveland Center
12:21AM 42.5931 -82.3178 86° East 469 540 37,000  Level Cleveland Center
12:22AM 42.6039 -82.1431 85° East 464 534 37,000  Level Cleveland Center
12:23AM 42.6125 -81.9656 86° East 464 534 37,000  Level Cleveland Center
12:24AM 42.6250 -81.7739 85° East 464 534 37,000  Level Cleveland Center
12:25AM 42.6350 -81.5936 86° East 458 527 37,000  Level Cleveland Center
12:26AM 42.6425 -81.4411 86° East 461 531 37,000  Level Cleveland Center
12:27AM 42.6500 -81.2664 87° East 456 525 37,000  Level Cleveland Center
12:28AM 42.6592 -81.0942 86° East 463 533 37,000  Level Cleveland Center
12:29AM 42.6639 -80.9164 88° East 463 533 37,000  Level Cleveland Center
12:30AM 42.6747 -80.7442 85° East 463 533 37,000  Level Cleveland Center
12:31AM 42.6792 -80.5436 88° East 458 527 37,000  Level Cleveland Center
12:32AM 42.6872 -80.3686 86° East 465 535 37,000  Level Cleveland Center
12:33AM 42.6931 -80.1961 87° East 463 533 37,000  Level Cleveland Center
12:34AM 42.7006 -80.0267 86° East 455 524 37,000  Level Cleveland Center
12:35AM 42.7058 -79.8542 88° East 450 518 37,000  Level Cleveland Center
12:36AM 42.7111 -79.6847 88° East 450 518 37,000  Level Cleveland Center
12:37AM 42.7178 -79.5150 87° East 450 518 37,000  Level Cleveland Center
12:38AM 42.7225 -79.3453 88° East 450 518 37,000  Level Cleveland Center
12:39AM 42.7267 -79.1728 88° East 450 518 37,000  Level Cleveland Center
12:40AM 42.7328 -79.0003 87° East 450 518 37,000  Level Cleveland Center
12:41AM 42.7367 -78.8333 88° East 450 518 37,000  Level Cleveland Center
12:42AM 42.7403 -78.6608 88° East 450 518 37,000  Level Cleveland Center
12:43AM 42.7433 -78.4883 89° East 450 518 37,000 -840 Level Cleveland Center
12:44AM 42.7464 -78.3158 89° East 455 524 35,400 -1,800 Descending Cleveland Center
12:45AM 42.7492 -78.1489 89° East 455 524 33,500 -1,800 Descending Cleveland Center
12:46AM 42.7519 -77.9847 89° East 441 507 31,900 -1,620 Descending Cleveland Center
12:47AM 42.7564 -77.8175 88° East 441 507 30,300 -1,500 Descending Cleveland Center
12:48AM 42.7606 -77.6450 88° East 441 507 29,000 -660 Descending Cleveland Center
12:49AM 42.7622 -77.4694 89° East 446 513 29,000  Level Cleveland Center
12:52AM 42.7647 -77.1186 89° East 447 514 29,000  Level Boston Center
12:53AM 42.7656 -76.9461 90° East 447 514 29,000  Level Boston Center
12:54AM 42.7658 -76.7736 90° East 447 514 29,000  Level Boston Center
12:55AM 42.7681 -76.6067 89° East 442 509 29,000 -540 Level Boston Center
12:56AM 42.7675 -76.4453 90° East 432 497 28,000 -840 Descending Boston Center
12:57AM 42.7689 -76.2900 89° East 420 483 27,400 -540 Descending Boston Center
12:58AM 42.7672 -76.1456 91° East 420 483 27,000 -240 Descending Boston Center
12:59AM 42.7703 -75.9900 88° East 412 474 27,000  Level Boston Center
01:00AM 42.7689 -75.8286 91° East 417 480 27,000 -600 Level Boston Center
01:01AM 42.7675 -75.6644 91° East 422 486 25,800 -1,500 Descending Boston Center
01:02AM 42.7675 -75.5061 90° East 422 486 24,000 -1,800 Descending Boston Center
01:03AM 42.7672 -75.3561 90° East 409 471 22,200 -1,800 Descending Boston Center
01:04AM 42.7647 -75.2089 91° East 396 456 20,400 -2,160 Descending Boston Center
01:05AM 42.7639 -75.0675 90° East 384 442 17,900 -2,280 Descending Boston Center
01:06AM 42.7628 -74.9317 91° East 370 426 15,900 -2,220 Descending Boston Center
01:06AM 42.7608 -74.8325 91° East 345 397 14,300 -2,220 Descending Boston Center
01:07AM 42.7617 -74.6939 89° East 339 390 12,200 -1,560 Descending Boston Center
01:08AM 42.7597 -74.5781 91° East 310 357 11,200 -900 Descending Boston Center
01:09AM 42.7575 -74.4733 92° East 268 308 10,500 -1,380 Descending Boston Center
01:10AM 42.7550 -74.3742 92° East 261 300 8,500 -1,920 Descending Boston Center
01:11AM 42.7567 -74.2753 89° East 257 296 6,700 -1,860 Descending Boston Center
01:12AM 42.7975 -74.1972 54° Northeast 257 296 4,800 -1,800 Descending Boston Center
01:13AM 42.8403 -74.1219 52° Northeast 253 291 3,100 -900 Descending Boston Center
01:14AM 42.8831 -74.0525 50° Northeast 231 266 3,000 -60 Descending Boston Center
01:15AM 42.9047 -73.9819 67° East 201 231 3,000 -60 Level Boston Center
01:16AM 42.9119 -73.9058 83° East 185 213 2,900 -540 Descending Boston Center
01:17AM 42.9106 -73.8489 92° East 145 167 2,000 -480 Descending Boston Center
01:18AM 42.8733 -73.8283 158° South 136 157 2,000  Level Boston Center
01:20AM 42.8406 -73.7908 140° Southeast 131 151 2,000 -420 Level Boston Center
01:20AM 42.7964 -73.8097 197° South 146 168 1,200 -1,020 Descending Boston Center
01:22AM 42.7491 -73.8020 175° South  Level Estimated
01:29AM 42.7491 -73.8020 175° South  Level Estimated
01:30AM 42.7491 -73.8020 175° South  Level Estimated
01:31AM 42.7491 -73.8020 175° South  Level Estimated
01:32AM 42.7491 -73.8020 175° South  Level Estimated